sensor_id;sensor_type;location;lat;lon;timestamp;temperature;humidity
1417;DHT22;703;51.162;13.574;2023-08-07T00:01:47;14.60;99.90
1417;DHT22;703;51.162;13.574;2023-08-07T00:04:12;14.60;99.90
1417;DHT22;703;51.162;13.574;2023-08-07T00:06:38;14.50;99.90
1417;DHT22;703;51.162;13.574;2023-08-07T00:09:03;14.60;99.90
1417;DHT22;703;51.162;13.574;2023-08-07T00:11:29;14.60;99.90
1417;DHT22;703;51.162;13.574;2023-08-07T00:13:55;14.60;99.90
1417;DHT22;703;51.162;13.574;2023-08-07T00:16:20;14.60;99.90
1417;DHT22;703;51.162;13.574;2023-08-07T00:18:46;14.60;99.90
1417;DHT22;703;51.162;13.574;2023-08-07T00:21:11;14.60;99.90
1417;DHT22;703;51.162;13.574;2023-08-07T00:23:37;14.60;99.90
1417;DHT22;703;51.162;13.574;2023-08-07T00:26:02;14.60;99.90
1417;DHT22;703;51.162;13.574;2023-08-07T00:28:28;14.60;99.90
1417;DHT22;703;51.162;13.574;2023-08-07T00:30:55;14.60;99.90
1417;DHT22;703;51.162;13.574;2023-08-07T00:33:20;14.60;99.90
1417;DHT22;703;51.162;13.574;2023-08-07T00:35:46;14.60;99.90
1417;DHT22;703;51.162;13.574;2023-08-07T00:38:11;14.60;99.90
1417;DHT22;703;51.162;13.574;2023-08-07T00:40:37;14.60;99.90
1417;DHT22;703;51.162;13.574;2023-08-07T00:43:03;14.60;99.90
1417;DHT22;703;51.162;13.574;2023-08-07T00:45:29;14.60;99.90
1417;DHT22;703;51.162;13.574;2023-08-07T00:47:55;14.50;99.90
1417;DHT22;703;51.162;13.574;2023-08-07T00:50:20;14.50;99.90
1417;DHT22;703;51.162;13.574;2023-08-07T00:52:46;14.50;99.90
1417;DHT22;703;51.162;13.574;2023-08-07T00:55:11;14.50;99.90
1417;DHT22;703;51.162;13.574;2023-08-07T00:57:37;14.50;99.90
1417;DHT22;703;51.162;13.574;2023-08-07T01:00:03;14.50;99.90
1417;DHT22;703;51.162;13.574;2023-08-07T01:02:28;14.50;99.90
1417;DHT22;703;51.162;13.574;2023-08-07T01:04:54;14.50;99.90
1417;DHT22;703;51.162;13.574;2023-08-07T01:07:19;14.40;99.90
1417;DHT22;703;51.162;13.574;2023-08-07T01:09:45;14.40;99.90
1417;DHT22;703;51.162;13.574;2023-08-07T01:12:13;14.30;99.90
1417;DHT22;703;51.162;13.574;2023-08-07T01:14:42;14.30;99.90
1417;DHT22;703;51.162;13.574;2023-08-07T01:17:16;14.30;99.90
1417;DHT22;703;51.162;13.574;2023-08-07T01:19:42;14.30;99.90
1417;DHT22;703;51.162;13.574;2023-08-07T01:22:15;14.20;99.90
1417;DHT22;703;51.162;13.574;2023-08-07T01:24:44;14.30;99.90
1417;DHT22;703;51.162;13.574;2023-08-07T01:30:23;14.20;99.90
1417;DHT22;703;51.162;13.574;2023-08-07T01:32:33;14.30;99.90
1417;DHT22;703;51.162;13.574;2023-08-07T01:35:01;14.30;99.90
1417;DHT22;703;51.162;13.574;2023-08-07T01:37:26;14.20;99.90
1417;DHT22;703;51.162;13.574;2023-08-07T01:39:53;14.30;99.90
1417;DHT22;703;51.162;13.574;2023-08-07T01:42:19;14.30;99.90
1417;DHT22;703;51.162;13.574;2023-08-07T01:44:44;14.30;99.90
1417;DHT22;703;51.162;13.574;2023-08-07T01:47:10;14.30;99.90
1417;DHT22;703;51.162;13.574;2023-08-07T01:49:35;14.30;99.90
1417;DHT22;703;51.162;13.574;2023-08-07T01:52:01;14.30;99.90
1417;DHT22;703;51.162;13.574;2023-08-07T01:54:27;14.30;99.90
1417;DHT22;703;51.162;13.574;2023-08-07T01:56:52;14.40;99.90
1417;DHT22;703;51.162;13.574;2023-08-07T01:59:18;14.40;99.90
1417;DHT22;703;51.162;13.574;2023-08-07T02:01:43;14.40;99.90
1417;DHT22;703;51.162;13.574;2023-08-07T02:04:09;14.40;99.90
1417;DHT22;703;51.162;13.574;2023-08-07T02:06:34;14.40;99.90
1417;DHT22;703;51.162;13.574;2023-08-07T02:09:00;14.40;99.90
1417;DHT22;703;51.162;13.574;2023-08-07T02:11:25;14.40;99.90
1417;DHT22;703;51.162;13.574;2023-08-07T02:13:51;14.40;99.90
1417;DHT22;703;51.162;13.574;2023-08-07T02:16:16;14.40;99.90
1417;DHT22;703;51.162;13.574;2023-08-07T02:18:42;14.40;99.90
1417;DHT22;703;51.162;13.574;2023-08-07T02:21:07;14.40;99.90
1417;DHT22;703;51.162;13.574;2023-08-07T02:23:33;14.40;99.90
1417;DHT22;703;51.162;13.574;2023-08-07T02:25:59;14.40;99.90
1417;DHT22;703;51.162;13.574;2023-08-07T02:28:25;14.40;99.90
1417;DHT22;703;51.162;13.574;2023-08-07T02:30:50;14.40;99.90
1417;DHT22;703;51.162;13.574;2023-08-07T02:33:16;14.40;99.90
1417;DHT22;703;51.162;13.574;2023-08-07T02:35:42;14.40;99.90
1417;DHT22;703;51.162;13.574;2023-08-07T02:38:07;14.50;99.90
1417;DHT22;703;51.162;13.574;2023-08-07T02:40:33;14.40;99.90
1417;DHT22;703;51.162;13.574;2023-08-07T02:42:58;14.40;99.90
1417;DHT22;703;51.162;13.574;2023-08-07T02:45:24;14.40;99.90
1417;DHT22;703;51.162;13.574;2023-08-07T02:47:49;14.30;99.90
1417;DHT22;703;51.162;13.574;2023-08-07T02:50:15;14.30;99.90
1417;DHT22;703;51.162;13.574;2023-08-07T02:52:40;14.30;99.90
1417;DHT22;703;51.162;13.574;2023-08-07T02:55:06;14.30;99.90
1417;DHT22;703;51.162;13.574;2023-08-07T02:57:32;14.30;99.90
1417;DHT22;703;51.162;13.574;2023-08-07T02:59:57;14.10;99.90
1417;DHT22;703;51.162;13.574;2023-08-07T03:02:23;14.00;99.90
1417;DHT22;703;51.162;13.574;2023-08-07T03:04:48;13.80;99.90
1417;DHT22;703;51.162;13.574;2023-08-07T03:07:14;13.80;99.90
1417;DHT22;703;51.162;13.574;2023-08-07T03:09:39;13.80;99.90
1417;DHT22;703;51.162;13.574;2023-08-07T03:12:05;13.70;99.90
1417;DHT22;703;51.162;13.574;2023-08-07T03:14:31;13.80;99.90
1417;DHT22;703;51.162;13.574;2023-08-07T03:16:57;13.80;99.90
1417;DHT22;703;51.162;13.574;2023-08-07T03:19:23;13.70;99.90
1417;DHT22;703;51.162;13.574;2023-08-07T03:21:48;13.70;99.90
1417;DHT22;703;51.162;13.574;2023-08-07T03:24:14;13.70;99.90
1417;DHT22;703;51.162;13.574;2023-08-07T03:26:39;13.70;99.90
1417;DHT22;703;51.162;13.574;2023-08-07T03:29:06;13.60;99.90
1417;DHT22;703;51.162;13.574;2023-08-07T03:31:31;13.70;99.90
1417;DHT22;703;51.162;13.574;2023-08-07T03:33:57;13.60;99.90
1417;DHT22;703;51.162;13.574;2023-08-07T03:36:23;13.60;99.90
1417;DHT22;703;51.162;13.574;2023-08-07T03:38:49;13.70;99.90
1417;DHT22;703;51.162;13.574;2023-08-07T03:41:14;13.70;99.90
1417;DHT22;703;51.162;13.574;2023-08-07T03:43:40;13.70;99.90
1417;DHT22;703;51.162;13.574;2023-08-07T03:46:05;13.70;99.90
1417;DHT22;703;51.162;13.574;2023-08-07T03:48:31;13.70;99.90
1417;DHT22;703;51.162;13.574;2023-08-07T03:51:06;13.80;99.90
1417;DHT22;703;51.162;13.574;2023-08-07T03:53:36;13.80;99.90
1417;DHT22;703;51.162;13.574;2023-08-07T03:56:02;13.90;99.90
1417;DHT22;703;51.162;13.574;2023-08-07T03:58:28;13.80;99.90
1417;DHT22;703;51.162;13.574;2023-08-07T04:00:53;13.90;99.90
1417;DHT22;703;51.162;13.574;2023-08-07T04:03:19;13.90;99.90
1417;DHT22;703;51.162;13.574;2023-08-07T04:05:45;13.90;99.90
1417;DHT22;703;51.162;13.574;2023-08-07T04:08:10;13.90;99.90
1417;DHT22;703;51.162;13.574;2023-08-07T04:10:36;14.00;99.90
1417;DHT22;703;51.162;13.574;2023-08-07T04:13:01;14.00;99.90
1417;DHT22;703;51.162;13.574;2023-08-07T04:15:27;14.00;99.90
1417;DHT22;703;51.162;13.574;2023-08-07T04:17:53;14.00;99.90
1417;DHT22;703;51.162;13.574;2023-08-07T04:20:18;14.00;99.90
1417;DHT22;703;51.162;13.574;2023-08-07T04:22:45;14.00;99.90
1417;DHT22;703;51.162;13.574;2023-08-07T04:25:11;14.00;99.90
1417;DHT22;703;51.162;13.574;2023-08-07T04:27:37;14.00;99.90
1417;DHT22;703;51.162;13.574;2023-08-07T04:30:04;14.00;99.90
1417;DHT22;703;51.162;13.574;2023-08-07T04:32:29;14.00;99.90
1417;DHT22;703;51.162;13.574;2023-08-07T04:34:55;14.00;99.90
1417;DHT22;703;51.162;13.574;2023-08-07T04:37:20;14.00;99.90
1417;DHT22;703;51.162;13.574;2023-08-07T04:39:46;14.00;99.90
1417;DHT22;703;51.162;13.574;2023-08-07T04:42:12;14.00;99.90
1417;DHT22;703;51.162;13.574;2023-08-07T04:44:37;14.00;99.90
1417;DHT22;703;51.162;13.574;2023-08-07T04:47:03;14.00;99.90
1417;DHT22;703;51.162;13.574;2023-08-07T04:49:28;14.10;99.90
1417;DHT22;703;51.162;13.574;2023-08-07T04:51:57;14.10;99.90
1417;DHT22;703;51.162;13.574;2023-08-07T04:54:22;14.10;99.90
1417;DHT22;703;51.162;13.574;2023-08-07T04:56:48;14.10;99.90
1417;DHT22;703;51.162;13.574;2023-08-07T04:59:13;14.20;99.90
1417;DHT22;703;51.162;13.574;2023-08-07T05:01:39;14.20;99.90
1417;DHT22;703;51.162;13.574;2023-08-07T05:04:05;14.20;99.90
1417;DHT22;703;51.162;13.574;2023-08-07T05:06:30;14.20;99.90
1417;DHT22;703;51.162;13.574;2023-08-07T05:08:56;14.20;99.90
1417;DHT22;703;51.162;13.574;2023-08-07T05:11:21;14.20;99.90
1417;DHT22;703;51.162;13.574;2023-08-07T05:13:47;14.20;99.90
1417;DHT22;703;51.162;13.574;2023-08-07T05:16:12;14.20;99.90
1417;DHT22;703;51.162;13.574;2023-08-07T05:18:38;14.30;99.90
1417;DHT22;703;51.162;13.574;2023-08-07T05:21:03;14.20;99.90
1417;DHT22;703;51.162;13.574;2023-08-07T05:23:29;14.30;99.90
1417;DHT22;703;51.162;13.574;2023-08-07T05:25:55;14.30;99.90
1417;DHT22;703;51.162;13.574;2023-08-07T05:28:21;14.30;99.90
1417;DHT22;703;51.162;13.574;2023-08-07T05:30:46;14.30;99.90
1417;DHT22;703;51.162;13.574;2023-08-07T05:33:13;14.40;99.90
1417;DHT22;703;51.162;13.574;2023-08-07T05:35:40;14.40;99.90
1417;DHT22;703;51.162;13.574;2023-08-07T05:38:06;14.40;99.90
1417;DHT22;703;51.162;13.574;2023-08-07T05:40:31;14.40;99.90
1417;DHT22;703;51.162;13.574;2023-08-07T05:42:57;14.50;99.90
1417;DHT22;703;51.162;13.574;2023-08-07T05:45:22;14.50;99.90
1417;DHT22;703;51.162;13.574;2023-08-07T05:47:48;14.50;99.90
1417;DHT22;703;51.162;13.574;2023-08-07T05:50:13;14.50;99.90
1417;DHT22;703;51.162;13.574;2023-08-07T05:52:39;14.50;99.90
1417;DHT22;703;51.162;13.574;2023-08-07T05:55:04;14.50;99.90
1417;DHT22;703;51.162;13.574;2023-08-07T05:57:30;14.50;99.90
1417;DHT22;703;51.162;13.574;2023-08-07T05:59:56;14.50;99.90
1417;DHT22;703;51.162;13.574;2023-08-07T06:02:21;14.60;99.90
1417;DHT22;703;51.162;13.574;2023-08-07T06:04:47;14.50;99.90
1417;DHT22;703;51.162;13.574;2023-08-07T06:07:13;14.60;99.90
1417;DHT22;703;51.162;13.574;2023-08-07T06:09:39;14.70;99.90
1417;DHT22;703;51.162;13.574;2023-08-07T06:12:04;14.70;99.90
1417;DHT22;703;51.162;13.574;2023-08-07T06:14:30;14.70;99.90
1417;DHT22;703;51.162;13.574;2023-08-07T06:16:56;14.80;99.90
1417;DHT22;703;51.162;13.574;2023-08-07T06:19:23;14.90;99.90
1417;DHT22;703;51.162;13.574;2023-08-07T06:21:49;14.80;99.90
1417;DHT22;703;51.162;13.574;2023-08-07T06:24:14;14.80;99.90
1417;DHT22;703;51.162;13.574;2023-08-07T06:26:40;14.80;99.90
1417;DHT22;703;51.162;13.574;2023-08-07T06:29:05;14.80;99.90
1417;DHT22;703;51.162;13.574;2023-08-07T06:31:31;14.80;99.90
1417;DHT22;703;51.162;13.574;2023-08-07T06:33:56;14.80;99.90
1417;DHT22;703;51.162;13.574;2023-08-07T06:36:22;14.80;99.90
1417;DHT22;703;51.162;13.574;2023-08-07T06:38:47;14.90;99.90
1417;DHT22;703;51.162;13.574;2023-08-07T06:41:13;14.90;99.90
1417;DHT22;703;51.162;13.574;2023-08-07T06:43:38;14.90;99.90
1417;DHT22;703;51.162;13.574;2023-08-07T06:46:04;14.90;99.90
1417;DHT22;703;51.162;13.574;2023-08-07T06:48:29;15.00;99.90
1417;DHT22;703;51.162;13.574;2023-08-07T06:50:55;15.10;99.90
1417;DHT22;703;51.162;13.574;2023-08-07T06:53:20;15.10;99.90
1417;DHT22;703;51.162;13.574;2023-08-07T06:55:46;15.10;99.90
1417;DHT22;703;51.162;13.574;2023-08-07T06:58:12;15.10;99.90
1417;DHT22;703;51.162;13.574;2023-08-07T07:00:37;15.10;99.90
1417;DHT22;703;51.162;13.574;2023-08-07T07:03:03;15.10;99.90
1417;DHT22;703;51.162;13.574;2023-08-07T07:05:29;15.10;99.90
1417;DHT22;703;51.162;13.574;2023-08-07T07:07:55;15.20;99.90
1417;DHT22;703;51.162;13.574;2023-08-07T07:10:21;15.20;99.90
1417;DHT22;703;51.162;13.574;2023-08-07T07:12:46;15.20;99.90
1417;DHT22;703;51.162;13.574;2023-08-07T07:15:12;15.30;99.90
1417;DHT22;703;51.162;13.574;2023-08-07T07:17:38;15.20;99.90
1417;DHT22;703;51.162;13.574;2023-08-07T07:20:03;15.20;99.90
1417;DHT22;703;51.162;13.574;2023-08-07T07:22:29;15.30;99.90
1417;DHT22;703;51.162;13.574;2023-08-07T07:24:55;15.40;99.90
1417;DHT22;703;51.162;13.574;2023-08-07T07:27:20;15.40;99.90
1417;DHT22;703;51.162;13.574;2023-08-07T07:29:47;15.50;99.90
1417;DHT22;703;51.162;13.574;2023-08-07T07:32:13;15.50;99.90
1417;DHT22;703;51.162;13.574;2023-08-07T07:34:39;15.60;99.90
1417;DHT22;703;51.162;13.574;2023-08-07T07:37:04;15.70;99.90
1417;DHT22;703;51.162;13.574;2023-08-07T07:39:30;15.70;99.90
1417;DHT22;703;51.162;13.574;2023-08-07T07:41:55;15.60;99.90
1417;DHT22;703;51.162;13.574;2023-08-07T07:44:21;15.70;99.90
1417;DHT22;703;51.162;13.574;2023-08-07T07:46:46;15.90;99.90
1417;DHT22;703;51.162;13.574;2023-08-07T07:49:12;15.80;99.90
1417;DHT22;703;51.162;13.574;2023-08-07T07:51:37;16.00;99.90
1417;DHT22;703;51.162;13.574;2023-08-07T07:54:03;16.10;99.90
1417;DHT22;703;51.162;13.574;2023-08-07T07:56:28;16.10;99.90
1417;DHT22;703;51.162;13.574;2023-08-07T07:58:54;17.50;99.90
1417;DHT22;703;51.162;13.574;2023-08-07T08:01:20;16.30;99.90
1417;DHT22;703;51.162;13.574;2023-08-07T08:03:45;16.10;99.90
1417;DHT22;703;51.162;13.574;2023-08-07T08:06:11;16.10;99.90
1417;DHT22;703;51.162;13.574;2023-08-07T08:08:37;16.30;99.90
1417;DHT22;703;51.162;13.574;2023-08-07T08:11:03;16.30;99.90
1417;DHT22;703;51.162;13.574;2023-08-07T08:13:28;16.30;99.90
1417;DHT22;703;51.162;13.574;2023-08-07T08:15:54;16.20;99.90
1417;DHT22;703;51.162;13.574;2023-08-07T08:18:19;16.10;99.90
1417;DHT22;703;51.162;13.574;2023-08-07T08:20:45;16.10;99.90
1417;DHT22;703;51.162;13.574;2023-08-07T08:23:10;16.20;99.90
1417;DHT22;703;51.162;13.574;2023-08-07T08:25:36;16.30;99.90
1417;DHT22;703;51.162;13.574;2023-08-07T08:28:01;16.20;99.90
1417;DHT22;703;51.162;13.574;2023-08-07T08:30:27;16.30;99.90
1417;DHT22;703;51.162;13.574;2023-08-07T08:32:53;16.40;99.90
1417;DHT22;703;51.162;13.574;2023-08-07T08:35:19;16.60;99.90
1417;DHT22;703;51.162;13.574;2023-08-07T08:37:44;16.80;99.90
1417;DHT22;703;51.162;13.574;2023-08-07T08:40:10;16.90;99.90
1417;DHT22;703;51.162;13.574;2023-08-07T08:42:38;17.10;99.90
1417;DHT22;703;51.162;13.574;2023-08-07T08:45:04;17.10;99.90
1417;DHT22;703;51.162;13.574;2023-08-07T08:47:30;17.00;99.90
1417;DHT22;703;51.162;13.574;2023-08-07T08:50:01;17.10;99.90
1417;DHT22;703;51.162;13.574;2023-08-07T08:52:28;17.10;99.90
1417;DHT22;703;51.162;13.574;2023-08-07T08:54:54;16.90;99.90
1417;DHT22;703;51.162;13.574;2023-08-07T08:57:21;16.90;99.90
1417;DHT22;703;51.162;13.574;2023-08-07T08:59:46;17.20;99.90
1417;DHT22;703;51.162;13.574;2023-08-07T09:02:12;17.20;99.90
1417;DHT22;703;51.162;13.574;2023-08-07T09:04:41;17.30;99.90
1417;DHT22;703;51.162;13.574;2023-08-07T09:07:07;17.50;99.90
1417;DHT22;703;51.162;13.574;2023-08-07T09:09:33;17.50;99.90
1417;DHT22;703;51.162;13.574;2023-08-07T09:11:58;17.30;99.90
1417;DHT22;703;51.162;13.574;2023-08-07T09:14:26;17.20;99.90
1417;DHT22;703;51.162;13.574;2023-08-07T09:16:55;17.40;99.90
1417;DHT22;703;51.162;13.574;2023-08-07T09:19:22;17.30;99.90
1417;DHT22;703;51.162;13.574;2023-08-07T09:21:48;17.00;99.90
1417;DHT22;703;51.162;13.574;2023-08-07T09:24:13;17.20;99.90
1417;DHT22;703;51.162;13.574;2023-08-07T09:26:41;17.70;99.90
1417;DHT22;703;51.162;13.574;2023-08-07T09:29:09;18.10;99.90
1417;DHT22;703;51.162;13.574;2023-08-07T09:31:36;18.10;99.90
1417;DHT22;703;51.162;13.574;2023-08-07T09:34:02;17.90;99.90
1417;DHT22;703;51.162;13.574;2023-08-07T09:36:32;17.60;99.90
1417;DHT22;703;51.162;13.574;2023-08-07T09:39:00;17.30;99.90
1417;DHT22;703;51.162;13.574;2023-08-07T09:41:26;17.20;99.90
1417;DHT22;703;51.162;13.574;2023-08-07T09:43:53;17.20;99.90
1417;DHT22;703;51.162;13.574;2023-08-07T09:46:18;17.50;99.90
1417;DHT22;703;51.162;13.574;2023-08-07T09:48:44;18.20;99.90
1417;DHT22;703;51.162;13.574;2023-08-07T09:51:10;18.30;99.90
1417;DHT22;703;51.162;13.574;2023-08-07T09:53:36;18.10;99.90
1417;DHT22;703;51.162;13.574;2023-08-07T09:56:01;19.10;99.90
1417;DHT22;703;51.162;13.574;2023-08-07T09:58:27;17.60;99.90
1417;DHT22;703;51.162;13.574;2023-08-07T10:00:53;17.50;99.90
1417;DHT22;703;51.162;13.574;2023-08-07T10:03:19;17.40;99.90
1417;DHT22;703;51.162;13.574;2023-08-07T10:05:44;17.20;99.90
1417;DHT22;703;51.162;13.574;2023-08-07T10:08:10;17.40;99.90
1417;DHT22;703;51.162;13.574;2023-08-07T10:10:36;17.50;99.90
1417;DHT22;703;51.162;13.574;2023-08-07T10:13:02;17.70;99.90
1417;DHT22;703;51.162;13.574;2023-08-07T10:15:28;18.40;99.90
1417;DHT22;703;51.162;13.574;2023-08-07T10:17:53;18.10;99.90
1417;DHT22;703;51.162;13.574;2023-08-07T10:20:19;17.60;99.90
1417;DHT22;703;51.162;13.574;2023-08-07T10:22:45;17.70;99.90
1417;DHT22;703;51.162;13.574;2023-08-07T10:25:11;18.40;99.90
1417;DHT22;703;51.162;13.574;2023-08-07T10:27:38;19.00;99.90
1417;DHT22;703;51.162;13.574;2023-08-07T10:30:05;19.10;99.90
1417;DHT22;703;51.162;13.574;2023-08-07T10:32:31;19.10;99.90
1417;DHT22;703;51.162;13.574;2023-08-07T10:34:58;18.60;99.90
1417;DHT22;703;51.162;13.574;2023-08-07T10:37:43;18.30;99.90
1417;DHT22;703;51.162;13.574;2023-08-07T10:40:09;18.20;99.90
1417;DHT22;703;51.162;13.574;2023-08-07T10:45:36;17.40;99.90
1417;DHT22;703;51.162;13.574;2023-08-07T10:53:28;17.30;99.90
1417;DHT22;703;51.162;13.574;2023-08-07T10:55:53;17.30;99.90
1417;DHT22;703;51.162;13.574;2023-08-07T11:00:49;17.40;99.90
1417;DHT22;703;51.162;13.574;2023-08-07T11:03:27;17.70;99.90
1417;DHT22;703;51.162;13.574;2023-08-07T11:05:53;17.70;99.90
1417;DHT22;703;51.162;13.574;2023-08-07T11:08:22;17.60;99.90
1417;DHT22;703;51.162;13.574;2023-08-07T11:10:50;17.50;99.90
1417;DHT22;703;51.162;13.574;2023-08-07T11:13:16;17.40;99.90
1417;DHT22;703;51.162;13.574;2023-08-07T11:15:41;17.30;99.90
1417;DHT22;703;51.162;13.574;2023-08-07T11:18:07;17.30;99.90
1417;DHT22;703;51.162;13.574;2023-08-07T11:20:34;17.50;99.90
1417;DHT22;703;51.162;13.574;2023-08-07T11:22:59;17.50;99.90
1417;DHT22;703;51.162;13.574;2023-08-07T11:25:25;17.50;99.90
1417;DHT22;703;51.162;13.574;2023-08-07T11:27:51;17.40;99.90
1417;DHT22;703;51.162;13.574;2023-08-07T11:30:16;17.20;99.90
1417;DHT22;703;51.162;13.574;2023-08-07T11:32:42;16.90;99.90
1417;DHT22;703;51.162;13.574;2023-08-07T11:35:08;16.60;99.90
1417;DHT22;703;51.162;13.574;2023-08-07T11:37:33;16.30;99.90
1417;DHT22;703;51.162;13.574;2023-08-07T11:40:00;15.80;99.90
1417;DHT22;703;51.162;13.574;2023-08-07T11:42:27;15.60;99.90
1417;DHT22;703;51.162;13.574;2023-08-07T11:44:53;15.60;99.90
1417;DHT22;703;51.162;13.574;2023-08-07T11:47:18;15.50;99.90
1417;DHT22;703;51.162;13.574;2023-08-07T11:49:44;15.40;99.90
1417;DHT22;703;51.162;13.574;2023-08-07T11:52:10;15.40;99.90
1417;DHT22;703;51.162;13.574;2023-08-07T11:54:35;15.30;99.90
1417;DHT22;703;51.162;13.574;2023-08-07T11:57:01;15.30;99.90
1417;DHT22;703;51.162;13.574;2023-08-07T11:59:26;15.50;99.90
1417;DHT22;703;51.162;13.574;2023-08-07T12:01:52;13.00;99.90
1417;DHT22;703;51.162;13.574;2023-08-07T12:04:17;16.00;99.90
1417;DHT22;703;51.162;13.574;2023-08-07T12:06:53;16.00;99.90
1417;DHT22;703;51.162;13.574;2023-08-07T12:09:19;16.60;99.90
1417;DHT22;703;51.162;13.574;2023-08-07T12:11:44;17.00;99.90
1417;DHT22;703;51.162;13.574;2023-08-07T12:14:13;17.00;99.90
1417;DHT22;703;51.162;13.574;2023-08-07T12:16:43;17.00;99.90
1417;DHT22;703;51.162;13.574;2023-08-07T12:19:09;17.00;99.90
1417;DHT22;703;51.162;13.574;2023-08-07T12:21:34;17.00;99.90
1417;DHT22;703;51.162;13.574;2023-08-07T12:24:01;17.10;99.90
1417;DHT22;703;51.162;13.574;2023-08-07T12:26:26;17.00;99.90
1417;DHT22;703;51.162;13.574;2023-08-07T12:28:52;16.80;99.90
1417;DHT22;703;51.162;13.574;2023-08-07T12:31:18;16.90;99.90
1417;DHT22;703;51.162;13.574;2023-08-07T12:33:44;17.00;99.90
1417;DHT22;703;51.162;13.574;2023-08-07T12:36:09;17.10;99.90
1417;DHT22;703;51.162;13.574;2023-08-07T12:38:35;17.00;99.90
1417;DHT22;703;51.162;13.574;2023-08-07T12:41:01;17.10;99.90
1417;DHT22;703;51.162;13.574;2023-08-07T12:43:28;17.20;99.90
1417;DHT22;703;51.162;13.574;2023-08-07T12:45:54;17.50;99.90
1417;DHT22;703;51.162;13.574;2023-08-07T12:48:19;17.50;99.90
1417;DHT22;703;51.162;13.574;2023-08-07T12:50:45;17.40;99.90
1417;DHT22;703;51.162;13.574;2023-08-07T12:53:10;17.20;99.90
1417;DHT22;703;51.162;13.574;2023-08-07T12:55:36;17.00;99.90
1417;DHT22;703;51.162;13.574;2023-08-07T12:58:02;16.80;99.90
1417;DHT22;703;51.162;13.574;2023-08-07T13:00:27;16.60;99.90
1417;DHT22;703;51.162;13.574;2023-08-07T13:02:53;16.50;99.90
1417;DHT22;703;51.162;13.574;2023-08-07T13:05:20;16.50;99.90
1417;DHT22;703;51.162;13.574;2023-08-07T13:07:46;16.40;99.90
1417;DHT22;703;51.162;13.574;2023-08-07T13:10:13;16.70;99.90
1417;DHT22;703;51.162;13.574;2023-08-07T13:12:39;16.90;99.90
1417;DHT22;703;51.162;13.574;2023-08-07T13:15:05;17.30;99.90
1417;DHT22;703;51.162;13.574;2023-08-07T13:17:32;17.30;99.90
1417;DHT22;703;51.162;13.574;2023-08-07T13:19:58;17.30;99.90
1417;DHT22;703;51.162;13.574;2023-08-07T13:22:24;17.20;99.90
1417;DHT22;703;51.162;13.574;2023-08-07T13:24:49;17.10;99.90
1417;DHT22;703;51.162;13.574;2023-08-07T13:27:15;17.00;99.90
1417;DHT22;703;51.162;13.574;2023-08-07T13:29:40;17.00;99.90
1417;DHT22;703;51.162;13.574;2023-08-07T13:32:06;16.80;99.90
1417;DHT22;703;51.162;13.574;2023-08-07T13:34:35;16.70;99.90
1417;DHT22;703;51.162;13.574;2023-08-07T13:37:01;16.30;99.90
1417;DHT22;703;51.162;13.574;2023-08-07T13:39:26;16.00;99.90
1417;DHT22;703;51.162;13.574;2023-08-07T13:41:53;15.90;99.90
1417;DHT22;703;51.162;13.574;2023-08-07T13:44:18;15.70;99.90
1417;DHT22;703;51.162;13.574;2023-08-07T13:46:44;15.60;99.90
1417;DHT22;703;51.162;13.574;2023-08-07T13:49:10;15.50;99.90
1417;DHT22;703;51.162;13.574;2023-08-07T13:51:35;15.40;99.90
1417;DHT22;703;51.162;13.574;2023-08-07T13:54:02;15.40;99.90
1417;DHT22;703;51.162;13.574;2023-08-07T13:56:27;15.30;99.90
1417;DHT22;703;51.162;13.574;2023-08-07T13:58:53;15.20;99.90
1417;DHT22;703;51.162;13.574;2023-08-07T14:01:20;15.10;99.90
1417;DHT22;703;51.162;13.574;2023-08-07T14:03:45;15.00;99.90
1417;DHT22;703;51.162;13.574;2023-08-07T14:06:11;14.80;99.90
1417;DHT22;703;51.162;13.574;2023-08-07T14:08:36;14.80;99.90
1417;DHT22;703;51.162;13.574;2023-08-07T14:11:02;14.60;99.90
1417;DHT22;703;51.162;13.574;2023-08-07T14:13:28;14.70;99.90
1417;DHT22;703;51.162;13.574;2023-08-07T14:15:54;14.70;99.90
1417;DHT22;703;51.162;13.574;2023-08-07T14:18:19;14.70;99.90
1417;DHT22;703;51.162;13.574;2023-08-07T14:20:45;14.90;99.90
1417;DHT22;703;51.162;13.574;2023-08-07T14:23:10;15.10;99.90
1417;DHT22;703;51.162;13.574;2023-08-07T14:25:36;15.40;99.90
1417;DHT22;703;51.162;13.574;2023-08-07T14:28:01;15.60;99.90
1417;DHT22;703;51.162;13.574;2023-08-07T14:30:27;16.00;99.90
1417;DHT22;703;51.162;13.574;2023-08-07T14:32:52;16.40;99.90
1417;DHT22;703;51.162;13.574;2023-08-07T14:35:18;16.30;99.90
1417;DHT22;703;51.162;13.574;2023-08-07T14:37:44;16.20;99.90
1417;DHT22;703;51.162;13.574;2023-08-07T14:40:10;16.00;99.90
1417;DHT22;703;51.162;13.574;2023-08-07T14:42:35;16.00;99.90
1417;DHT22;703;51.162;13.574;2023-08-07T14:45:01;16.00;99.90
1417;DHT22;703;51.162;13.574;2023-08-07T14:47:26;16.00;99.90
1417;DHT22;703;51.162;13.574;2023-08-07T14:49:52;16.20;99.90
1417;DHT22;703;51.162;13.574;2023-08-07T14:52:17;16.20;99.90
1417;DHT22;703;51.162;13.574;2023-08-07T14:54:43;16.20;99.90
1417;DHT22;703;51.162;13.574;2023-08-07T14:57:09;16.20;99.90
1417;DHT22;703;51.162;13.574;2023-08-07T14:59:34;16.10;99.90
1417;DHT22;703;51.162;13.574;2023-08-07T15:02:00;16.00;99.90
1417;DHT22;703;51.162;13.574;2023-08-07T15:04:25;16.00;99.90
1417;DHT22;703;51.162;13.574;2023-08-07T15:06:51;16.00;99.90
1417;DHT22;703;51.162;13.574;2023-08-07T15:09:16;16.00;99.90
1417;DHT22;703;51.162;13.574;2023-08-07T15:11:44;15.90;99.90
1417;DHT22;703;51.162;13.574;2023-08-07T15:14:10;16.00;99.90
1417;DHT22;703;51.162;13.574;2023-08-07T15:16:36;15.90;99.90
1417;DHT22;703;51.162;13.574;2023-08-07T15:19:02;15.90;99.90
1417;DHT22;703;51.162;13.574;2023-08-07T15:21:29;15.80;99.90
1417;DHT22;703;51.162;13.574;2023-08-07T15:23:54;15.70;99.90
1417;DHT22;703;51.162;13.574;2023-08-07T15:26:20;15.80;99.90
1417;DHT22;703;51.162;13.574;2023-08-07T15:28:46;15.70;99.90
1417;DHT22;703;51.162;13.574;2023-08-07T15:31:11;15.70;99.90
1417;DHT22;703;51.162;13.574;2023-08-07T15:33:37;15.70;99.90
1417;DHT22;703;51.162;13.574;2023-08-07T15:36:02;15.70;99.90
1417;DHT22;703;51.162;13.574;2023-08-07T15:38:28;15.60;99.90
1417;DHT22;703;51.162;13.574;2023-08-07T15:40:53;15.40;99.90
1417;DHT22;703;51.162;13.574;2023-08-07T15:43:19;15.10;99.90
1417;DHT22;703;51.162;13.574;2023-08-07T15:45:45;15.10;99.90
1417;DHT22;703;51.162;13.574;2023-08-07T15:48:12;14.90;99.90
1417;DHT22;703;51.162;13.574;2023-08-07T15:50:37;14.90;99.90
1417;DHT22;703;51.162;13.574;2023-08-07T15:53:05;14.70;99.90
1417;DHT22;703;51.162;13.574;2023-08-07T15:55:30;14.70;99.90
1417;DHT22;703;51.162;13.574;2023-08-07T15:57:57;14.70;99.90
1417;DHT22;703;51.162;13.574;2023-08-07T16:00:23;14.70;99.90
1417;DHT22;703;51.162;13.574;2023-08-07T16:02:48;14.60;99.90
1417;DHT22;703;51.162;13.574;2023-08-07T16:05:14;14.50;99.90
1417;DHT22;703;51.162;13.574;2023-08-07T16:07:39;14.30;99.90